Time;durP1;ratioP1;P1;durP2;ratioP2;P2;SDS_P1;SDS_P2;PMS_P1;PMS_P2;Temp;Humidity;BMP_temperature;BMP_pressure;BME280_temperature;BME280_humidity;BME280_pressure;Samples;Min_cycle;Max_cycle;Signal;HPM_P1;HPM_P2
2023/03/01 00:00:29;;;;;;;2.65;1.00;;;0.10;99.90;;;;;;8421494;28;20399;-79
2023/03/01 00:04:30;;;;;;;10.73;6.03;;;0.10;99.90;;;;;;8423483;28;20500;-81
2023/03/01 00:08:32;;;;;;;10.82;4.97;;;0.00;99.90;;;;;;8424559;28;20020;-80
2023/03/01 00:12:33;;;;;;;7.15;1.85;;;0.10;99.90;;;;;;8428158;28;20024;-81
2023/03/01 00:16:39;;;;;;;11.85;5.68;;;0.00;99.90;;;;;;8430854;28;20027;-81
2023/03/01 00:20:40;;;;;;;9.45;4.50;;;0.00;99.90;;;;;;8431709;28;20024;-80
2023/03/01 00:24:40;;;;;;;1.90;1.58;;;0.00;99.90;;;;;;8430735;28;20492;-80
2023/03/01 00:28:42;;;;;;;3.28;2.58;;;-0.10;99.90;;;;;;8432070;28;20020;-81
2023/03/01 00:32:42;;;;;;;8.75;4.70;;;-0.10;99.90;;;;;;8430914;28;20488;-81
2023/03/01 00:36:43;;;;;;;11.73;4.45;;;-0.10;99.90;;;;;;8431901;22;20040;-80
2023/03/01 00:40:43;;;;;;;3.47;2.67;;;0.00;99.90;;;;;;8377512;28;20044;-79
2023/03/01 00:44:44;;;;;;;8.38;4.78;;;0.00;99.90;;;;;;8401538;28;20084;-79
2023/03/01 00:48:45;;;;;;;5.15;2.22;;;0.00;99.90;;;;;;8389629;28;20032;-80
2023/03/01 00:52:46;;;;;;;13.70;6.88;;;0.00;99.90;;;;;;8403519;28;20033;-79
2023/03/01 00:56:46;;;;;;;11.65;5.40;;;0.00;99.90;;;;;;8419579;28;20478;-80
2023/03/01 01:00:47;;;;;;;7.65;3.78;;;0.00;99.90;;;;;;8381931;28;20082;-81
2023/03/01 01:04:48;;;;;;;7.97;4.20;;;0.00;99.90;;;;;;8388768;28;20105;-79
2023/03/01 01:08:49;;;;;;;9.70;5.38;;;0.00;99.90;;;;;;8390700;28;20488;-80
2023/03/01 01:12:50;;;;;;;16.10;6.65;;;0.00;99.90;;;;;;8416228;28;20024;-80
2023/03/01 01:16:50;;;;;;;7.85;2.97;;;0.00;99.90;;;;;;8412266;28;20032;-80
2023/03/01 01:20:51;;;;;;;5.03;2.78;;;0.10;99.90;;;;;;8387811;28;20024;-80
2023/03/01 01:24:51;;;;;;;12.60;5.90;;;0.10;99.90;;;;;;8392886;28;20024;-79
2023/03/01 01:28:53;;;;;;;4.43;1.25;;;0.00;99.90;;;;;;8393210;28;20511;-79
2023/03/01 01:32:54;;;;;;;7.35;3.15;;;0.00;99.90;;;;;;8395167;28;20071;-79
2023/03/01 01:36:54;;;;;;;15.02;6.45;;;0.00;99.90;;;;;;8391667;28;20028;-80
2023/03/01 01:40:55;;;;;;;6.97;2.67;;;0.00;99.90;;;;;;8385796;28;20077;-79
2023/03/01 01:45:32;;;;;;;3.20;2.00;;;0.00;99.90;;;;;;8380236;28;20194;-79
2023/03/01 01:49:54;;;;;;;1.65;1.50;;;0.00;99.90;;;;;;8397924;28;20138;-79
2023/03/01 01:54:00;;;;;;;8.57;4.60;;;0.00;99.90;;;;;;8382731;28;20090;-80
2023/03/01 01:58:04;;;;;;;4.43;2.92;;;-0.10;99.90;;;;;;8405227;28;20462;-79
2023/03/01 02:02:05;;;;;;;12.40;5.78;;;-0.10;99.90;;;;;;8404270;28;20478;-80
2023/03/01 02:06:23;;;;;;;7.85;4.25;;;-0.10;99.90;;;;;;8428020;28;20052;-79
2023/03/01 02:10:25;;;;;;;15.73;7.32;;;-0.20;99.90;;;;;;8416676;28;20507;-79
2023/03/01 02:14:26;;;;;;;5.75;4.32;;;-0.10;99.90;;;;;;8405743;28;20130;-80
2023/03/01 02:18:26;;;;;;;7.82;3.25;;;-0.10;99.90;;;;;;8387543;28;20109;-80
2023/03/01 02:32:31;;;;;;;12.93;6.78;;;-0.10;99.90;;;;;;8409007;28;20400;-79
2023/03/01 02:36:36;;;;;;;12.23;6.28;;;-0.10;99.90;;;;;;8404938;28;20040;-79
2023/03/01 02:40:39;;;;;;;5.60;4.00;;;-0.10;99.90;;;;;;8394429;28;20059;-79
2023/03/01 02:44:40;;;;;;;16.55;7.18;;;-0.10;99.90;;;;;;8406985;28;20029;-78
2023/03/01 02:48:47;;;;;;;13.02;5.53;;;-0.10;99.90;;;;;;8397780;28;20088;-79
2023/03/01 02:53:04;;;;;;;3.85;2.63;;;-0.20;99.90;;;;;;8392143;28;20032;-80
2023/03/01 02:57:05;;;;;;;8.18;4.13;;;-0.10;99.90;;;;;;8400997;28;20066;-80
2023/03/01 03:01:06;;;;;;;4.90;3.13;;;-0.20;99.90;;;;;;8385760;28;20021;-80
2023/03/01 03:05:14;;;;;;;13.60;6.15;;;-0.20;99.90;;;;;;8392025;28;20024;-80
2023/03/01 03:09:16;;;;;;;15.40;7.80;;;-0.20;99.90;;;;;;8394406;28;20022;-80
2023/03/01 03:13:17;;;;;;;7.88;1.75;;;-0.20;99.90;;;;;;8401267;28;20030;-80
2023/03/01 03:17:17;;;;;;;13.73;5.63;;;-0.20;99.90;;;;;;8419335;28;20118;-80
2023/03/01 03:21:18;;;;;;;6.88;4.82;;;-0.10;99.90;;;;;;8393084;28;20468;-80
2023/03/01 03:25:19;;;;;;;9.52;5.85;;;-0.20;99.90;;;;;;8397109;28;20042;-80
2023/03/01 03:29:20;;;;;;;12.75;5.32;;;-0.20;99.90;;;;;;8417028;28;20028;-80
2023/03/01 03:33:20;;;;;;;10.93;5.95;;;-0.20;99.90;;;;;;8419580;28;20031;-80
2023/03/01 03:41:40;;;;;;;11.80;6.07;;;-0.20;99.90;;;;;;8415453;28;20572;-80
2023/03/01 03:45:41;;;;;;;14.90;6.07;;;-0.30;99.90;;;;;;8378420;28;20021;-80
2023/03/01 03:49:41;;;;;;;17.55;7.78;;;-0.20;99.90;;;;;;8399316;28;20404;-81
2023/03/01 03:53:43;;;;;;;14.63;7.13;;;-0.20;99.90;;;;;;8408517;28;20032;-80
2023/03/01 03:57:43;;;;;;;7.38;3.50;;;-0.10;99.90;;;;;;8401537;28;20073;-80
2023/03/01 04:01:45;;;;;;;6.97;4.78;;;-0.10;99.90;;;;;;8400746;28;20024;-80
2023/03/01 04:05:47;;;;;;;13.13;6.60;;;-0.20;99.90;;;;;;8392386;28;20028;-80
2023/03/01 04:09:47;;;;;;;14.55;6.93;;;-0.20;99.90;;;;;;8411028;28;20103;-81
2023/03/01 04:13:48;;;;;;;12.85;6.90;;;-0.30;99.90;;;;;;8389345;28;20028;-80
2023/03/01 04:17:51;;;;;;;13.35;7.35;;;-0.30;99.90;;;;;;8389360;28;20093;-81
2023/03/01 04:21:52;;;;;;;11.23;4.55;;;-0.30;99.90;;;;;;8397672;28;20017;-80
2023/03/01 04:25:55;;;;;;;12.38;5.93;;;-0.20;99.90;;;;;;8380840;28;20048;-81
2023/03/01 04:29:55;;;;;;;13.55;6.50;;;-0.30;99.90;;;;;;8381046;28;20102;-80
2023/03/01 04:33:56;;;;;;;6.88;4.30;;;-0.30;99.90;;;;;;8387311;28;20032;-80
2023/03/01 04:37:57;;;;;;;10.13;5.07;;;-0.30;99.90;;;;;;8388128;28;20029;-80
2023/03/01 04:41:57;;;;;;;9.90;6.60;;;-0.30;99.90;;;;;;8392323;28;20024;-80
2023/03/01 04:46:09;;;;;;;11.18;5.05;;;-0.30;99.90;;;;;;8384418;28;20069;-80
2023/03/01 04:50:11;;;;;;;12.35;7.32;;;-0.20;99.90;;;;;;8413500;28;20017;-80
2023/03/01 04:54:11;;;;;;;11.15;6.38;;;-0.30;99.90;;;;;;8392032;28;20070;-80
2023/03/01 04:58:12;;;;;;;9.07;4.10;;;-0.20;99.90;;;;;;8393713;28;20020;-80
2023/03/01 05:02:12;;;;;;;7.50;4.75;;;-0.10;99.90;;;;;;8391907;28;20090;-80
2023/03/01 05:06:13;;;;;;;11.07;5.43;;;-0.20;99.90;;;;;;8397123;28;20455;-80
2023/03/01 05:10:14;;;;;;;7.20;3.10;;;-0.10;99.90;;;;;;8425687;28;20020;-80
2023/03/01 05:14:15;;;;;;;15.05;7.95;;;-0.10;99.90;;;;;;8419564;28;20059;-80
2023/03/01 05:18:15;;;;;;;17.17;7.95;;;-0.10;99.90;;;;;;8380848;28;20413;-79
2023/03/01 05:22:16;;;;;;;13.95;8.10;;;-0.10;99.90;;;;;;8404371;28;20055;-79
2023/03/01 05:26:19;;;;;;;8.13;4.68;;;-0.10;99.90;;;;;;8382572;28;20105;-79
2023/03/01 05:30:19;;;;;;;9.57;5.82;;;-0.10;99.90;;;;;;8396833;28;20021;-80
2023/03/01 05:34:25;;;;;;;7.40;3.35;;;-0.10;99.90;;;;;;8390946;28;20024;-80
2023/03/01 05:38:25;;;;;;;9.35;4.85;;;0.00;99.90;;;;;;8374614;28;20499;-80
2023/03/01 05:42:26;;;;;;;10.93;7.07;;;-0.10;99.90;;;;;;8414018;28;20020;-81
2023/03/01 05:46:26;;;;;;;15.13;7.28;;;-0.10;99.90;;;;;;8414859;28;20047;-81
2023/03/01 05:50:29;;;;;;;13.23;6.88;;;-0.10;99.90;;;;;;8399755;28;20024;-81
2023/03/01 05:54:30;;;;;;;16.08;7.40;;;0.10;99.90;;;;;;8397001;28;20059;-81
2023/03/01 05:58:31;;;;;;;9.07;5.07;;;0.10;99.90;;;;;;8431251;28;20028;-81
2023/03/01 06:02:31;;;;;;;13.82;6.45;;;0.00;99.90;;;;;;8424076;28;20016;-81
2023/03/01 06:06:37;;;;;;;15.18;7.00;;;0.10;99.90;;;;;;8423647;28;20376;-81
2023/03/01 06:10:37;;;;;;;16.40;8.10;;;0.00;99.90;;;;;;8401064;28;20024;-81
2023/03/01 06:14:38;;;;;;;4.28;2.10;;;0.00;99.90;;;;;;8385504;28;20021;-79
2023/03/01 06:18:39;;;;;;;13.60;7.82;;;0.10;99.90;;;;;;8410975;28;20025;-80
2023/03/01 06:22:40;;;;;;;11.30;3.92;;;0.10;99.90;;;;;;8408110;28;20020;-80
2023/03/01 06:26:41;;;;;;;9.85;4.75;;;0.10;99.90;;;;;;8410623;28;20616;-80
2023/03/01 06:30:42;;;;;;;18.80;9.00;;;0.00;99.90;;;;;;8391668;28;20166;-79
2023/03/01 06:34:43;;;;;;;7.60;4.68;;;-0.10;99.90;;;;;;8397229;28;20039;-80
2023/03/01 06:38:43;;;;;;;5.80;3.65;;;-0.10;99.90;;;;;;8399471;28;20408;-79
2023/03/01 06:42:48;;;;;;;8.07;4.80;;;-0.10;99.90;;;;;;8390120;28;20028;-79
2023/03/01 06:46:49;;;;;;;11.27;6.07;;;0.00;99.90;;;;;;8403725;28;20560;-79
2023/03/01 06:50:50;;;;;;;9.73;5.38;;;0.00;99.90;;;;;;8384099;28;20111;-77
2023/03/01 06:54:50;;;;;;;11.57;5.32;;;0.00;99.90;;;;;;8396845;28;20035;-79
2023/03/01 06:58:51;;;;;;;13.05;6.65;;;0.00;99.90;;;;;;8390283;28;20484;-80
2023/03/01 07:02:52;;;;;;;15.10;6.07;;;-0.10;99.90;;;;;;8382284;28;20028;-80
2023/03/01 07:06:54;;;;;;;9.68;4.47;;;0.00;99.90;;;;;;8406763;28;20463;-80
2023/03/01 07:10:59;;;;;;;14.52;7.35;;;0.00;99.90;;;;;;8390910;28;20032;-80
2023/03/01 07:14:59;;;;;;;15.70;6.55;;;0.00;99.90;;;;;;8396967;28;20032;-80
2023/03/01 07:19:00;;;;;;;14.55;7.13;;;0.10;99.90;;;;;;8393397;28;20069;-80
2023/03/01 07:23:00;;;;;;;16.27;7.72;;;0.10;99.90;;;;;;8395517;28;20017;-80
2023/03/01 07:27:01;;;;;;;10.60;6.20;;;0.10;99.90;;;;;;8401066;28;20023;-80
2023/03/01 07:31:03;;;;;;;19.25;5.80;;;0.10;99.90;;;;;;8381511;28;20031;-80
2023/03/01 07:35:03;;;;;;;12.00;6.07;;;0.00;99.90;;;;;;8398255;28;20036;-79
2023/03/01 07:39:04;;;;;;;6.88;3.33;;;0.10;99.90;;;;;;8389115;28;20039;-79
2023/03/01 07:43:04;;;;;;;15.20;6.95;;;0.10;99.90;;;;;;8394432;28;20044;-80
2023/03/01 07:47:05;;;;;;;5.65;3.63;;;0.10;99.90;;;;;;8380073;28;20017;-80
2023/03/01 07:51:06;;;;;;;18.65;8.05;;;0.20;99.90;;;;;;8392572;28;20024;-80
2023/03/01 07:55:07;;;;;;;10.18;5.10;;;0.20;99.90;;;;;;8384171;28;20024;-80
2023/03/01 07:59:08;;;;;;;8.80;4.50;;;0.20;99.90;;;;;;8414010;28;20070;-80
2023/03/01 08:03:08;;;;;;;11.23;5.53;;;0.20;99.90;;;;;;8386087;28;20028;-79
2023/03/01 08:07:09;;;;;;;14.77;7.45;;;0.20;99.90;;;;;;8385174;28;20086;-79
2023/03/01 08:11:14;;;;;;;13.82;7.05;;;0.20;99.90;;;;;;8397926;28;20036;-80
2023/03/01 08:15:14;;;;;;;18.88;7.95;;;0.30;99.90;;;;;;8381923;28;20024;-77
2023/03/01 08:19:15;;;;;;;10.65;4.65;;;0.20;99.90;;;;;;8398758;28;20024;-80
2023/03/01 08:23:15;;;;;;;10.43;6.30;;;0.40;99.90;;;;;;8400175;28;20103;-79
2023/03/01 08:27:16;;;;;;;11.68;6.97;;;0.40;99.90;;;;;;8384211;28;20399;-80
2023/03/01 08:31:22;;;;;;;12.50;6.85;;;0.50;99.90;;;;;;8394776;28;20108;-79
2023/03/01 08:35:23;;;;;;;9.38;5.40;;;0.60;99.90;;;;;;8390015;28;20032;-80
2023/03/01 08:39:23;;;;;;;12.68;6.38;;;0.50;99.90;;;;;;8385638;28;20400;-80
2023/03/01 08:43:24;;;;;;;10.82;6.80;;;0.40;99.90;;;;;;8386308;28;20017;-80
2023/03/01 08:47:26;;;;;;;15.70;7.20;;;0.40;99.90;;;;;;8383190;28;20035;-80
2023/03/01 08:51:26;;;;;;;15.85;6.82;;;0.50;99.90;;;;;;8378723;28;20027;-80
2023/03/01 08:55:28;;;;;;;14.70;6.20;;;0.60;99.90;;;;;;8412110;28;20557;-80
2023/03/01 08:59:29;;;;;;;4.95;1.55;;;0.60;99.90;;;;;;8397233;28;20020;-79
2023/03/01 09:03:30;;;;;;;16.38;8.48;;;0.70;99.90;;;;;;8385778;28;20535;-80
2023/03/01 09:07:30;;;;;;;7.47;4.97;;;0.80;99.90;;;;;;8387810;28;20043;-79
2023/03/01 09:11:31;;;;;;;23.33;9.52;;;1.00;99.90;;;;;;8390375;28;20552;-80
2023/03/01 09:15:33;;;;;;;5.13;3.45;;;1.20;99.90;;;;;;8377441;28;20150;-79
2023/03/01 09:19:33;;;;;;;13.90;6.85;;;1.10;99.90;;;;;;8396560;28;20027;-80
2023/03/01 09:23:41;;;;;;;10.02;4.45;;;1.10;99.90;;;;;;8396630;28;20020;-80
2023/03/01 09:27:41;;;;;;;21.33;8.70;;;0.90;99.90;;;;;;8390814;28;20074;-80
2023/03/01 09:31:43;;;;;;;8.93;5.43;;;0.90;99.90;;;;;;8380154;28;20028;-80
2023/03/01 09:35:46;;;;;;;14.32;6.88;;;1.00;99.90;;;;;;8386678;28;20032;-79
2023/03/01 09:39:47;;;;;;;16.08;6.30;;;0.90;99.90;;;;;;8395801;28;20024;-80
2023/03/01 09:43:53;;;;;;;13.95;6.65;;;1.00;99.90;;;;;;8392958;28;20025;-79
2023/03/01 09:47:55;;;;;;;16.88;7.32;;;1.10;99.90;;;;;;8411820;28;20047;-79
2023/03/01 09:52:04;;;;;;;21.58;9.98;;;1.20;99.90;;;;;;8384996;28;20021;-80
2023/03/01 09:56:21;;;;;;;11.15;4.15;;;1.10;99.90;;;;;;8383907;28;20059;-80
2023/03/01 10:00:56;;;;;;;12.30;4.25;;;1.40;99.90;;;;;;8387242;28;20031;-79
2023/03/01 10:05:24;;;;;;;13.55;5.78;;;1.40;99.90;;;;;;8371702;28;20029;-79
2023/03/01 10:09:25;;;;;;;11.98;4.00;;;1.40;99.90;;;;;;8384824;28;20024;-79
2023/03/01 10:13:29;;;;;;;16.90;7.45;;;1.50;99.90;;;;;;8394767;28;20107;-80
2023/03/01 10:17:38;;;;;;;19.23;8.68;;;1.40;99.90;;;;;;8410019;28;20021;-79
2023/03/01 10:21:45;;;;;;;7.05;4.38;;;1.70;99.90;;;;;;8398419;28;20016;-78
2023/03/01 10:26:20;;;;;;;11.35;4.80;;;1.80;99.90;;;;;;8383943;28;20032;-80
2023/03/01 10:30:39;;;;;;;10.35;4.50;;;1.80;99.90;;;;;;8405446;28;20027;-78
2023/03/01 10:34:39;;;;;;;8.13;4.38;;;1.90;99.90;;;;;;8391242;28;20078;-79
2023/03/01 10:38:55;;;;;;;13.25;5.80;;;1.80;99.90;;;;;;8418440;28;20426;-80
2023/03/01 10:42:58;;;;;;;11.88;6.65;;;2.10;99.90;;;;;;8389546;28;20025;-79
2023/03/01 10:47:01;;;;;;;14.07;6.53;;;1.70;99.90;;;;;;8394228;28;20898;-79
2023/03/01 10:51:01;;;;;;;11.50;4.90;;;1.60;99.90;;;;;;8395312;28;20032;-78
2023/03/01 10:55:45;;;;;;;10.10;3.47;;;1.50;99.90;;;;;;8420683;28;20052;-79
2023/03/01 10:59:45;;;;;;;18.05;8.13;;;1.60;99.90;;;;;;8405116;28;20488;-79
2023/03/01 11:04:06;;;;;;;12.85;6.18;;;2.00;99.90;;;;;;8390553;28;20024;-79
2023/03/01 11:08:06;;;;;;;;;;;2.40;99.90;;;;;;8382009;28;20546;-80
2023/03/01 11:12:15;;;;;;;11.00;5.45;;;2.30;99.90;;;;;;8413948;28;19905;-78
2023/03/01 11:16:27;;;;;;;13.57;6.68;;;2.30;99.90;;;;;;8400504;28;20663;-79
2023/03/01 11:20:34;;;;;;;20.25;8.50;;;2.40;99.90;;;;;;8389288;28;20017;-78
2023/03/01 11:24:43;;;;;;;11.02;6.40;;;2.60;99.90;;;;;;8401820;28;20028;-79
2023/03/01 11:28:49;;;;;;;18.57;8.40;;;2.80;99.90;;;;;;8395264;28;20039;-78
2023/03/01 11:33:10;;;;;;;17.50;7.75;;;2.80;99.90;;;;;;8380813;28;20025;-79
2023/03/01 11:37:26;;;;;;;15.25;8.23;;;3.00;99.90;;;;;;8399317;28;20024;-79
2023/03/01 11:41:31;;;;;;;8.88;5.00;;;3.10;99.90;;;;;;8401616;28;20442;-80
2023/03/01 11:45:47;;;;;;;18.38;7.93;;;3.30;99.90;;;;;;8389218;28;20044;-80
2023/03/01 11:49:50;;;;;;;17.15;8.88;;;3.30;99.90;;;;;;8407850;28;20388;-79
2023/03/01 11:54:20;;;;;;;11.05;5.82;;;3.50;99.90;;;;;;8412331;28;20024;-78
2023/03/01 11:58:32;;;;;;;8.98;5.25;;;3.60;99.90;;;;;;8391967;28;20507;-79
2023/03/01 12:03:00;;;;;;;9.10;5.18;;;3.20;99.90;;;;;;8385609;28;20017;-79
2023/03/01 12:07:18;;;;;;;19.33;8.40;;;3.10;99.90;;;;;;8388097;28;20024;-79
2023/03/01 12:11:35;;;;;;;14.25;4.32;;;3.80;99.90;;;;;;8388192;28;20124;-78
2023/03/01 12:15:48;;;;;;;18.08;8.68;;;4.10;99.90;;;;;;8391230;28;20381;-79
2023/03/01 12:20:01;;;;;;;11.93;5.88;;;4.30;99.90;;;;;;8390464;28;20036;-80
2023/03/01 12:24:27;;;;;;;18.98;8.80;;;4.30;99.90;;;;;;8384752;28;20016;-80
2023/03/01 12:28:51;;;;;;;17.58;7.90;;;4.20;99.90;;;;;;8405888;28;20055;-80
2023/03/01 12:33:15;;;;;;;22.73;9.48;;;5.10;99.90;;;;;;8379847;28;20120;-79
2023/03/01 12:37:33;;;;;;;11.63;5.43;;;4.40;99.90;;;;;;8374121;28;20419;-80
2023/03/01 12:41:59;;;;;;;17.55;9.80;;;4.70;99.90;;;;;;8385622;28;20104;-79
2023/03/01 12:46:25;;;;;;;21.83;9.88;;;5.30;99.90;;;;;;8358314;28;20044;-79
2023/03/01 12:50:57;;;;;;;15.50;8.30;;;4.70;99.90;;;;;;8418813;28;20025;-80
2023/03/01 12:55:02;;;;;;;17.58;9.23;;;5.40;99.90;;;;;;8388588;28;20500;-80
2023/03/01 12:59:19;;;;;;;14.15;6.97;;;6.30;99.90;;;;;;8387878;28;20029;-80
2023/03/01 13:03:55;;;;;;;16.17;7.70;;;6.30;99.90;;;;;;8415345;28;20024;-79
2023/03/01 13:08:20;;;;;;;19.23;9.05;;;6.10;99.90;;;;;;8395000;28;20020;-80
2023/03/01 13:12:43;;;;;;;19.50;8.93;;;6.30;99.90;;;;;;8389740;28;20027;-79
2023/03/01 13:16:45;;;;;;;17.63;10.20;;;6.50;99.90;;;;;;8419233;28;20137;-79
2023/03/01 13:20:48;;;;;;;11.85;6.00;;;6.60;99.90;;;;;;8387376;28;20024;-78
2023/03/01 13:25:02;;;;;;;20.80;9.20;;;6.90;99.90;;;;;;8393845;28;20431;-79
2023/03/01 13:29:03;;;;;;;22.50;10.40;;;7.80;99.90;;;;;;8376587;28;20507;-79
2023/03/01 13:33:27;;;;;;;21.05;10.30;;;8.40;99.90;;;;;;8384318;28;20017;-80
2023/03/01 13:37:37;;;;;;;20.00;10.05;;;9.10;99.90;;;;;;8409749;28;20581;-79
2023/03/01 13:41:40;;;;;;;25.67;12.60;;;8.50;99.90;;;;;;8398030;28;20203;-80
2023/03/01 13:45:42;;;;;;;20.92;10.48;;;9.80;99.90;;;;;;8398407;28;20312;-79
2023/03/01 13:49:52;;;;;;;23.35;9.30;;;9.00;99.90;;;;;;8402598;28;20037;-79
2023/03/01 13:53:54;;;;;;;19.88;10.55;;;9.40;99.90;;;;;;8405598;28;20059;-79
2023/03/01 13:58:01;;;;;;;12.90;7.05;;;8.80;99.90;;;;;;8388938;28;20514;-78
2023/03/01 14:02:01;;;;;;;15.48;7.60;;;8.70;99.90;;;;;;8393661;28;20391;-79
2023/03/01 14:06:11;;;;;;;7.38;4.25;;;8.70;99.90;;;;;;8385496;28;20021;-79
2023/03/01 14:10:12;;;;;;;;;;;8.20;99.90;;;;;;8395128;28;20685;-79
2023/03/01 14:14:38;;;;;;;13.63;6.55;;;7.80;99.90;;;;;;8419781;28;19904;-79
2023/03/01 14:18:59;;;;;;;21.45;10.55;;;9.00;99.90;;;;;;8415333;28;20499;-79
2023/03/01 14:23:08;;;;;;;14.90;7.38;;;9.20;99.90;;;;;;8417742;28;20096;-80
2023/03/01 14:27:12;;;;;;;20.42;10.85;;;8.90;99.90;;;;;;8429964;28;20020;-79
2023/03/01 14:31:46;;;;;;;10.23;5.07;;;9.10;99.90;;;;;;8412419;28;20031;-78
2023/03/01 14:36:05;;;;;;;8.77;5.15;;;9.20;99.90;;;;;;8362527;28;20196;-78
2023/03/01 14:40:24;;;;;;;21.95;10.27;;;8.70;99.90;;;;;;8406692;28;20029;-79
2023/03/01 14:44:25;;;;;;;17.80;8.80;;;8.90;99.90;;;;;;8410859;28;20110;-82
2023/03/01 14:48:27;;;;;;;19.77;8.88;;;9.30;99.90;;;;;;8407158;28;20023;-82
2023/03/01 14:52:41;;;;;;;19.67;10.88;;;9.80;99.90;;;;;;8403239;28;20111;-82
2023/03/01 14:56:46;;;;;;;17.80;8.85;;;9.40;99.90;;;;;;8407795;28;20040;-82
2023/03/01 15:00:56;;;;;;;18.13;9.70;;;9.60;99.90;;;;;;8414140;28;20040;-81
2023/03/01 15:05:03;;;;;;;25.38;11.25;;;9.80;99.90;;;;;;8397920;28;20515;-82
2023/03/01 15:09:14;;;;;;;20.65;10.52;;;10.40;99.90;;;;;;8393549;28;20051;-82
2023/03/01 15:13:24;;;;;;;13.02;6.85;;;9.70;99.90;;;;;;8390696;28;20028;-82
2023/03/01 15:17:38;;;;;;;17.88;11.00;;;8.30;99.90;;;;;;8389510;28;20029;-82
2023/03/01 15:21:44;;;;;;;21.75;10.98;;;6.60;99.90;;;;;;8404773;28;20020;-82
2023/03/01 15:25:45;;;;;;;22.00;11.18;;;6.10;99.90;;;;;;8401529;28;20028;-82
2023/03/01 15:29:57;;;;;;;21.63;10.63;;;5.90;99.90;;;;;;8403570;28;20031;-82
2023/03/01 15:34:28;;;;;;;18.67;9.70;;;5.70;99.90;;;;;;8392371;28;20020;-82
2023/03/01 15:38:40;;;;;;;;;;;5.10;99.90;;;;;;8405684;28;20036;-81
2023/03/01 15:42:40;;;;;;;10.07;4.97;;;4.80;99.90;;;;;;8391052;28;20376;-81
2023/03/01 15:46:46;;;;;;;23.55;9.50;;;4.70;99.90;;;;;;8397657;28;20055;-81
2023/03/01 15:50:54;;;;;;;21.48;10.52;;;4.70;99.90;;;;;;8383601;28;20036;-82
2023/03/01 15:55:02;;;;;;;25.48;11.88;;;4.60;99.90;;;;;;8394791;28;20031;-81
2023/03/01 15:59:05;;;;;;;24.73;11.20;;;4.70;99.90;;;;;;8393131;28;20021;-82
2023/03/01 16:03:08;;;;;;;25.27;10.88;;;4.90;99.90;;;;;;8376615;28;20078;-82
2023/03/01 16:07:09;;;;;;;14.65;6.60;;;4.90;99.90;;;;;;8363746;28;20461;-83
2023/03/01 16:11:18;;;;;;;21.15;11.02;;;5.10;99.90;;;;;;8368495;28;20020;-80
2023/03/01 16:15:22;;;;;;;20.77;10.77;;;4.90;99.90;;;;;;8386026;28;20032;-82
2023/03/01 17:31:07;;;;;;;22.48;11.15;;;3.20;99.90;;;;;;8282700;28;20054;-85
2023/03/01 17:35:10;;;;;;;26.20;10.20;;;3.30;99.90;;;;;;8291172;28;20033;-85
2023/03/01 17:39:14;;;;;;;37.85;16.58;;;3.30;99.90;;;;;;8311953;28;20037;-85
2023/03/01 17:43:16;;;;;;;28.15;12.55;;;3.50;99.90;;;;;;8301070;28;20381;-85
2023/03/01 17:47:17;;;;;;;27.98;13.63;;;3.80;99.90;;;;;;8302748;28;20044;-85
2023/03/01 17:51:18;;;;;;;32.10;13.95;;;3.70;99.90;;;;;;8303773;28;20013;-84
2023/03/01 17:55:18;;;;;;;28.77;13.63;;;3.70;99.90;;;;;;8304993;28;20437;-85
2023/03/01 17:59:19;;;;;;;26.38;12.68;;;3.40;99.90;;;;;;8307271;28;20532;-85
2023/03/01 18:03:20;;;;;;;22.23;10.60;;;3.30;99.90;;;;;;8305147;28;20041;-80
2023/03/01 18:07:21;;;;;;;30.17;13.63;;;3.30;99.90;;;;;;8292910;28;20079;-81
2023/03/01 18:11:23;;;;;;;29.88;14.35;;;2.90;99.90;;;;;;8284364;28;20017;-80
2023/03/01 18:15:24;;;;;;;29.33;13.55;;;2.50;99.90;;;;;;8265190;28;20026;-80
2023/03/01 18:19:24;;;;;;;55.05;22.40;;;2.20;99.90;;;;;;8279292;28;20032;-81
2023/03/01 18:23:26;;;;;;;39.92;18.65;;;2.50;99.90;;;;;;8280005;28;20034;-81
2023/03/01 18:27:26;;;;;;;33.45;16.88;;;2.70;99.90;;;;;;8270844;28;20030;-80
2023/03/01 18:31:31;;;;;;;41.97;15.52;;;2.60;99.90;;;;;;8270261;28;20027;-81
2023/03/01 18:35:35;;;;;;;37.97;17.50;;;2.30;99.90;;;;;;8270890;28;20029;-80
2023/03/01 18:39:36;;;;;;;35.05;14.90;;;2.00;99.90;;;;;;8273818;28;20042;-81
2023/03/01 18:43:37;;;;;;;35.65;15.60;;;1.70;99.90;;;;;;8267103;28;20037;-80
2023/03/01 18:47:38;;;;;;;33.03;14.57;;;1.50;99.90;;;;;;8274893;28;21624;-80
2023/03/01 18:51:39;;;;;;;32.33;13.85;;;1.40;99.90;;;;;;8267710;28;20027;-79
2023/03/01 18:55:40;;;;;;;32.15;15.02;;;1.70;99.90;;;;;;8273581;28;20138;-80
2023/03/01 18:59:41;;;;;;;29.95;14.13;;;1.80;99.90;;;;;;8274505;28;20050;-79
2023/03/01 19:03:41;;;;;;;33.35;15.75;;;1.90;99.90;;;;;;8276607;28;20026;-79
2023/03/01 19:07:42;;;;;;;28.08;13.13;;;1.80;99.90;;;;;;8290206;28;20526;-79
2023/03/01 19:11:42;;;;;;;25.90;11.90;;;1.80;99.90;;;;;;8287204;28;20721;-80
2023/03/01 19:15:43;;;;;;;28.48;12.88;;;2.20;99.90;;;;;;8278530;28;20022;-79
2023/03/01 19:19:43;;;;;;;28.25;12.10;;;1.80;99.90;;;;;;8298610;28;20034;-79
2023/03/01 19:23:44;;;;;;;26.98;12.05;;;1.50;99.90;;;;;;8294590;28;20538;-80
2023/03/01 19:27:47;;;;;;;27.00;12.55;;;1.10;99.90;;;;;;8290373;28;20088;-80
2023/03/01 19:31:48;;;;;;;27.67;11.40;;;0.70;99.90;;;;;;8314487;28;20536;-79
2023/03/01 19:35:50;;;;;;;25.65;11.45;;;0.40;99.90;;;;;;8218172;28;97325;-79
2023/03/01 19:39:50;;;;;;;25.30;11.45;;;0.20;99.90;;;;;;8198506;28;20042;-80
2023/03/01 19:43:52;;;;;;;26.80;11.93;;;-0.10;99.90;;;;;;8222699;28;20126;-80
2023/03/01 19:47:53;;;;;;;25.50;11.27;;;-0.30;99.90;;;;;;8203975;28;20023;-80
2023/03/01 19:51:53;;;;;;;23.33;10.63;;;-0.50;99.90;;;;;;8196608;28;20023;-80
2023/03/01 19:55:59;;;;;;;29.67;13.23;;;-0.70;99.90;;;;;;8213189;28;20031;-78
2023/03/01 20:00:00;;;;;;;30.23;12.77;;;-0.60;99.90;;;;;;8192831;28;20158;-79
2023/03/01 20:04:00;;;;;;;31.48;13.88;;;-0.70;99.90;;;;;;8185571;28;20071;-80
2023/03/01 20:08:02;;;;;;;25.38;11.65;;;-0.80;99.90;;;;;;8204936;28;20436;-79
2023/03/01 20:12:03;;;;;;;26.45;13.02;;;-0.80;99.90;;;;;;8208328;28;20090;-79
2023/03/01 20:16:04;;;;;;;31.17;13.70;;;-0.90;99.90;;;;;;8217347;28;20022;-81
2023/03/01 20:20:05;;;;;;;26.40;12.77;;;-1.10;99.90;;;;;;8214880;28;20058;-80
2023/03/01 20:24:05;;;;;;;39.03;15.98;;;-1.30;99.90;;;;;;8212328;28;20031;-81
2023/03/01 20:28:06;;;;;;;41.20;15.95;;;-1.30;99.90;;;;;;8227563;28;20042;-81
2023/03/01 20:32:07;;;;;;;32.38;13.93;;;-1.50;99.90;;;;;;8211864;28;20054;-80
2023/03/01 20:36:09;;;;;;;34.95;13.45;;;-1.50;99.90;;;;;;8205094;28;20027;-80
2023/03/01 20:40:11;;;;;;;26.90;12.27;;;-1.50;99.90;;;;;;8194317;28;20073;-80
2023/03/01 20:44:11;;;;;;;25.77;11.85;;;-1.50;99.90;;;;;;8201777;28;20114;-80
2023/03/01 20:48:12;;;;;;;24.83;11.43;;;-1.50;99.90;;;;;;8230278;28;20038;-80
2023/03/01 20:52:13;;;;;;;27.55;11.25;;;-1.50;99.90;;;;;;8213413;28;20042;-81
2023/03/01 20:56:16;;;;;;;26.83;11.15;;;-1.60;99.90;;;;;;8213754;28;20025;-81
2023/03/01 21:00:16;;;;;;;23.63;10.45;;;-1.80;99.90;;;;;;8211522;28;20687;-81
2023/03/01 21:04:17;;;;;;;32.10;11.82;;;-1.90;99.90;;;;;;8202591;28;20082;-79
2023/03/01 21:08:18;;;;;;;23.02;10.80;;;-2.00;99.90;;;;;;8190574;28;20085;-81
2023/03/01 21:12:19;;;;;;;21.85;9.35;;;-2.20;99.90;;;;;;8198275;28;20046;-81
2023/03/01 21:16:20;;;;;;;21.58;10.45;;;-2.20;99.90;;;;;;8198641;28;20425;-81
2023/03/01 21:20:21;;;;;;;21.90;10.48;;;-2.30;99.90;;;;;;8211085;28;20026;-82
2023/03/01 21:24:21;;;;;;;21.42;10.00;;;-2.40;99.90;;;;;;8215589;28;20506;-81
2023/03/01 21:28:22;;;;;;;26.80;10.40;;;-2.30;99.90;;;;;;8214861;28;20022;-81
2023/03/01 21:32:22;;;;;;;23.58;10.60;;;-2.30;99.90;;;;;;8229699;28;20085;-81
2023/03/01 21:36:25;;;;;;;20.58;8.98;;;-2.30;99.90;;;;;;8215888;28;20027;-81
2023/03/01 21:40:26;;;;;;;19.40;9.18;;;-2.40;99.90;;;;;;8231493;28;20029;-81
2023/03/01 21:44:28;;;;;;;22.48;9.57;;;-2.50;99.90;;;;;;8208809;28;20033;-81
2023/03/01 21:48:29;;;;;;;20.40;8.85;;;-2.60;99.90;;;;;;8206356;28;20122;-82
2023/03/01 21:52:29;;;;;;;20.30;9.15;;;-2.60;99.90;;;;;;8231642;28;20065;-81
2023/03/01 21:56:32;;;;;;;23.52;9.90;;;-2.60;99.90;;;;;;8205684;28;20042;-81
2023/03/01 22:00:38;;;;;;;21.02;10.35;;;-2.50;99.90;;;;;;8232825;28;20534;-81
2023/03/01 22:04:39;;;;;;;19.70;10.30;;;-2.50;99.90;;;;;;8222894;28;20102;-81
2023/03/01 22:08:40;;;;;;;18.52;8.75;;;-2.40;99.90;;;;;;8211944;28;20023;-81
2023/03/01 22:12:40;;;;;;;18.90;8.82;;;-2.30;99.90;;;;;;8214387;28;20019;-82
2023/03/01 22:16:44;;;;;;;21.83;9.68;;;-2.00;99.90;;;;;;8231026;28;20057;-81
2023/03/01 22:20:44;;;;;;;24.77;10.57;;;-1.90;99.90;;;;;;8217929;28;20117;-81
2023/03/01 22:24:45;;;;;;;21.13;10.13;;;-1.80;99.90;;;;;;8221963;28;20483;-81
2023/03/01 22:28:45;;;;;;;22.23;9.00;;;-1.60;99.90;;;;;;8238960;28;20030;-81
2023/03/01 22:32:46;;;;;;;18.02;8.77;;;-1.20;99.90;;;;;;8221646;28;20034;-80